sensor_id;sensor_type;location;lat;lon;timestamp;pressure;altitude;pressure_sealevel;temperature;humidity
75815;BME280;70031;45.570;14.228;2023-07-28T00:01:20;96898.53;;;10.68;100.00
75815;BME280;70031;45.570;14.228;2023-07-28T00:03:20;96902.41;;;10.57;100.00
75815;BME280;70031;45.570;14.228;2023-07-28T00:05:21;96898.16;;;10.51;100.00
75815;BME280;70031;45.570;14.228;2023-07-28T00:07:21;96899.72;;;10.57;100.00
75815;BME280;70031;45.570;14.228;2023-07-28T00:09:21;96898.00;;;10.66;100.00
75815;BME280;70031;45.570;14.228;2023-07-28T00:11:23;96901.25;;;10.68;100.00
75815;BME280;70031;45.570;14.228;2023-07-28T00:13:23;96906.53;;;10.73;100.00
75815;BME280;70031;45.570;14.228;2023-07-28T00:15:23;96897.31;;;10.79;100.00
75815;BME280;70031;45.570;14.228;2023-07-28T00:17:24;96903.50;;;10.80;100.00
75815;BME280;70031;45.570;14.228;2023-07-28T00:19:24;96899.50;;;10.77;100.00
75815;BME280;70031;45.570;14.228;2023-07-28T00:21:26;96900.59;;;10.76;100.00
75815;BME280;70031;45.570;14.228;2023-07-28T00:23:26;96900.06;;;10.74;100.00
75815;BME280;70031;45.570;14.228;2023-07-28T00:25:26;96906.25;;;10.75;100.00
75815;BME280;70031;45.570;14.228;2023-07-28T00:27:27;96904.31;;;10.80;100.00
75815;BME280;70031;45.570;14.228;2023-07-28T00:29:27;96900.81;;;10.80;100.00
75815;BME280;70031;45.570;14.228;2023-07-28T00:31:27;96902.19;;;10.77;100.00
75815;BME280;70031;45.570;14.228;2023-07-28T00:33:28;96901.97;;;10.74;100.00
75815;BME280;70031;45.570;14.228;2023-07-28T00:35:28;96893.25;;;10.58;100.00
75815;BME280;70031;45.570;14.228;2023-07-28T00:37:28;96898.13;;;10.56;100.00
75815;BME280;70031;45.570;14.228;2023-07-28T00:39:29;96898.09;;;10.61;100.00
75815;BME280;70031;45.570;14.228;2023-07-28T00:41:29;96893.16;;;10.44;100.00
75815;BME280;70031;45.570;14.228;2023-07-28T00:43:29;96897.78;;;10.38;100.00
75815;BME280;70031;45.570;14.228;2023-07-28T00:45:30;96889.59;;;10.49;100.00
75815;BME280;70031;45.570;14.228;2023-07-28T00:47:32;96899.50;;;10.29;100.00
75815;BME280;70031;45.570;14.228;2023-07-28T00:49:33;96883.53;;;10.38;100.00
75815;BME280;70031;45.570;14.228;2023-07-28T00:51:35;96882.91;;;10.46;100.00
75815;BME280;70031;45.570;14.228;2023-07-28T00:53:37;96884.78;;;10.46;100.00
75815;BME280;70031;45.570;14.228;2023-07-28T00:55:38;96890.75;;;10.43;100.00
75815;BME280;70031;45.570;14.228;2023-07-28T00:57:38;96891.25;;;10.45;100.00
75815;BME280;70031;45.570;14.228;2023-07-28T00:59:39;96888.78;;;10.48;100.00
75815;BME280;70031;45.570;14.228;2023-07-28T01:01:39;96876.13;;;10.49;100.00
75815;BME280;70031;45.570;14.228;2023-07-28T01:03:40;96880.38;;;10.55;100.00
75815;BME280;70031;45.570;14.228;2023-07-28T01:08:06;96887.88;;;10.58;100.00
75815;BME280;70031;45.570;14.228;2023-07-28T01:10:11;96880.38;;;10.55;100.00
75815;BME280;70031;45.570;14.228;2023-07-28T01:12:13;96873.41;;;10.54;100.00
75815;BME280;70031;45.570;14.228;2023-07-28T01:14:13;96879.53;;;10.59;100.00
75815;BME280;70031;45.570;14.228;2023-07-28T01:16:14;96868.53;;;10.56;100.00
75815;BME280;70031;45.570;14.228;2023-07-28T01:18:14;96873.53;;;10.44;100.00
75815;BME280;70031;45.570;14.228;2023-07-28T01:20:16;96868.59;;;10.27;100.00
75815;BME280;70031;45.570;14.228;2023-07-28T01:26:35;96852.03;;;10.38;100.00
75815;BME280;70031;45.570;14.228;2023-07-28T01:28:37;96854.59;;;10.25;100.00
75815;BME280;70031;45.570;14.228;2023-07-28T01:30:38;96856.88;;;10.12;100.00
75815;BME280;70031;45.570;14.228;2023-07-28T01:32:39;96852.94;;;10.00;100.00
75815;BME280;70031;45.570;14.228;2023-07-28T01:34:39;96854.13;;;9.89;100.00
75815;BME280;70031;45.570;14.228;2023-07-28T01:36:39;96846.84;;;9.94;100.00
75815;BME280;70031;45.570;14.228;2023-07-28T01:38:40;96848.38;;;10.00;100.00
75815;BME280;70031;45.570;14.228;2023-07-28T01:40:40;96857.00;;;9.97;100.00
75815;BME280;70031;45.570;14.228;2023-07-28T01:42:40;96853.53;;;9.97;100.00
75815;BME280;70031;45.570;14.228;2023-07-28T01:44:41;96860.97;;;10.05;100.00
75815;BME280;70031;45.570;14.228;2023-07-28T01:46:41;96850.19;;;10.10;100.00
75815;BME280;70031;45.570;14.228;2023-07-28T01:48:41;96841.03;;;10.11;100.00
75815;BME280;70031;45.570;14.228;2023-07-28T01:50:42;96837.75;;;10.14;100.00
75815;BME280;70031;45.570;14.228;2023-07-28T01:52:43;96843.94;;;10.14;100.00
75815;BME280;70031;45.570;14.228;2023-07-28T01:54:43;96843.63;;;10.16;100.00
75815;BME280;70031;45.570;14.228;2023-07-28T01:56:43;96837.66;;;10.24;100.00
75815;BME280;70031;45.570;14.228;2023-07-28T01:58:43;96833.09;;;10.25;100.00
75815;BME280;70031;45.570;14.228;2023-07-28T02:00:44;96831.91;;;10.07;100.00
75815;BME280;70031;45.570;14.228;2023-07-28T02:02:47;96844.38;;;9.98;100.00
75815;BME280;70031;45.570;14.228;2023-07-28T02:04:47;96836.13;;;9.89;100.00
75815;BME280;70031;45.570;14.228;2023-07-28T02:06:47;96834.19;;;9.95;100.00
75815;BME280;70031;45.570;14.228;2023-07-28T02:08:48;96829.63;;;9.95;100.00
75815;BME280;70031;45.570;14.228;2023-07-28T02:10:48;96819.59;;;10.01;100.00
75815;BME280;70031;45.570;14.228;2023-07-28T02:12:49;96821.59;;;9.90;100.00
75815;BME280;70031;45.570;14.228;2023-07-28T02:14:51;96828.06;;;9.89;100.00
75815;BME280;70031;45.570;14.228;2023-07-28T02:16:51;96831.44;;;10.00;100.00
75815;BME280;70031;45.570;14.228;2023-07-28T02:18:52;96825.94;;;9.86;100.00
75815;BME280;70031;45.570;14.228;2023-07-28T02:20:52;96819.19;;;9.89;100.00
75815;BME280;70031;45.570;14.228;2023-07-28T02:22:52;96818.28;;;9.98;100.00
75815;BME280;70031;45.570;14.228;2023-07-28T02:24:53;96811.19;;;10.07;100.00
75815;BME280;70031;45.570;14.228;2023-07-28T02:26:53;96807.81;;;9.97;100.00
75815;BME280;70031;45.570;14.228;2023-07-28T02:28:54;96809.41;;;9.98;100.00
75815;BME280;70031;45.570;14.228;2023-07-28T02:30:55;96808.66;;;9.92;100.00
75815;BME280;70031;45.570;14.228;2023-07-28T02:32:55;96810.72;;;9.76;100.00
75815;BME280;70031;45.570;14.228;2023-07-28T02:34:55;96806.38;;;9.80;100.00
75815;BME280;70031;45.570;14.228;2023-07-28T02:36:57;96802.00;;;9.84;100.00
75815;BME280;70031;45.570;14.228;2023-07-28T02:38:57;96802.09;;;9.79;100.00
75815;BME280;70031;45.570;14.228;2023-07-28T02:40:58;96802.47;;;9.92;100.00
75815;BME280;70031;45.570;14.228;2023-07-28T02:42:58;96801.94;;;9.95;100.00
75815;BME280;70031;45.570;14.228;2023-07-28T02:44:58;96797.69;;;9.89;100.00
75815;BME280;70031;45.570;14.228;2023-07-28T02:46:59;96795.97;;;9.98;100.00
75815;BME280;70031;45.570;14.228;2023-07-28T02:48:59;96803.53;;;9.96;100.00
75815;BME280;70031;45.570;14.228;2023-07-28T02:50:59;96794.72;;;9.90;100.00
75815;BME280;70031;45.570;14.228;2023-07-28T02:53:00;96798.78;;;9.88;100.00
75815;BME280;70031;45.570;14.228;2023-07-28T02:55:00;96807.34;;;9.90;100.00
75815;BME280;70031;45.570;14.228;2023-07-28T02:57:00;96803.09;;;9.83;100.00
75815;BME280;70031;45.570;14.228;2023-07-28T02:59:01;96806.50;;;9.65;100.00
75815;BME280;70031;45.570;14.228;2023-07-28T03:01:01;96805.41;;;9.66;100.00
75815;BME280;70031;45.570;14.228;2023-07-28T03:03:01;96805.78;;;9.83;100.00
75815;BME280;70031;45.570;14.228;2023-07-28T03:05:02;96808.72;;;9.87;100.00
75815;BME280;70031;45.570;14.228;2023-07-28T03:07:04;96804.13;;;9.58;100.00
75815;BME280;70031;45.570;14.228;2023-07-28T03:09:04;96805.47;;;9.61;100.00
75815;BME280;70031;45.570;14.228;2023-07-28T03:11:05;96801.91;;;9.71;100.00
75815;BME280;70031;45.570;14.228;2023-07-28T03:13:05;96806.19;;;9.72;100.00
75815;BME280;70031;45.570;14.228;2023-07-28T03:15:06;96806.28;;;9.62;100.00
75815;BME280;70031;45.570;14.228;2023-07-28T03:17:06;96814.19;;;9.48;100.00
75815;BME280;70031;45.570;14.228;2023-07-28T03:19:07;96811.69;;;9.56;100.00
75815;BME280;70031;45.570;14.228;2023-07-28T03:21:09;96815.38;;;9.66;100.00
75815;BME280;70031;45.570;14.228;2023-07-28T03:23:09;96822.09;;;9.68;100.00
75815;BME280;70031;45.570;14.228;2023-07-28T03:25:10;96819.09;;;9.70;100.00
75815;BME280;70031;45.570;14.228;2023-07-28T03:27:11;96827.34;;;9.78;100.00
75815;BME280;70031;45.570;14.228;2023-07-28T03:29:11;96831.06;;;9.82;100.00
75815;BME280;70031;45.570;14.228;2023-07-28T03:31:12;96829.97;;;9.83;100.00
75815;BME280;70031;45.570;14.228;2023-07-28T03:33:12;96837.03;;;9.79;100.00
75815;BME280;70031;45.570;14.228;2023-07-28T03:35:13;96841.34;;;9.75;100.00
75815;BME280;70031;45.570;14.228;2023-07-28T03:37:13;96840.47;;;9.85;100.00
75815;BME280;70031;45.570;14.228;2023-07-28T03:39:14;96841.28;;;9.85;100.00
75815;BME280;70031;45.570;14.228;2023-07-28T03:41:14;96841.81;;;9.82;100.00
75815;BME280;70031;45.570;14.228;2023-07-28T03:43:14;96852.56;;;9.82;100.00
75815;BME280;70031;45.570;14.228;2023-07-28T03:45:15;96850.47;;;9.79;100.00
75815;BME280;70031;45.570;14.228;2023-07-28T03:47:16;96851.88;;;9.72;100.00
75815;BME280;70031;45.570;14.228;2023-07-28T03:49:16;96857.53;;;9.70;100.00
75815;BME280;70031;45.570;14.228;2023-07-28T03:51:16;96856.91;;;9.78;100.00
75815;BME280;70031;45.570;14.228;2023-07-28T03:53:17;96861.13;;;9.84;100.00
75815;BME280;70031;45.570;14.228;2023-07-28T03:55:17;96858.25;;;9.76;100.00
75815;BME280;70031;45.570;14.228;2023-07-28T03:57:17;96866.38;;;9.71;100.00
75815;BME280;70031;45.570;14.228;2023-07-28T03:59:18;96861.56;;;9.68;100.00
75815;BME280;70031;45.570;14.228;2023-07-28T04:01:18;96861.31;;;9.69;100.00
75815;BME280;70031;45.570;14.228;2023-07-28T04:03:19;96861.03;;;9.66;100.00
75815;BME280;70031;45.570;14.228;2023-07-28T04:05:20;96861.31;;;9.69;100.00
75815;BME280;70031;45.570;14.228;2023-07-28T04:07:21;96850.06;;;9.62;100.00
75815;BME280;70031;45.570;14.228;2023-07-28T04:09:21;96852.69;;;9.67;100.00
75815;BME280;70031;45.570;14.228;2023-07-28T04:11:21;96861.84;;;9.66;100.00
75815;BME280;70031;45.570;14.228;2023-07-28T04:13:22;96854.94;;;9.60;100.00
75815;BME280;70031;45.570;14.228;2023-07-28T04:15:22;96856.53;;;9.61;100.00
75815;BME280;70031;45.570;14.228;2023-07-28T04:17:23;96853.56;;;9.63;100.00
75815;BME280;70031;45.570;14.228;2023-07-28T04:19:23;96854.88;;;9.65;100.00
75815;BME280;70031;45.570;14.228;2023-07-28T04:21:24;96854.44;;;9.53;100.00
75815;BME280;70031;45.570;14.228;2023-07-28T04:23:24;96854.09;;;9.60;100.00
75815;BME280;70031;45.570;14.228;2023-07-28T04:25:25;96849.78;;;9.64;100.00
75815;BME280;70031;45.570;14.228;2023-07-28T04:27:25;96839.81;;;9.69;100.00
75815;BME280;70031;45.570;14.228;2023-07-28T04:29:25;96843.28;;;9.70;100.00
75815;BME280;70031;45.570;14.228;2023-07-28T04:31:27;96841.34;;;9.75;100.00
75815;BME280;70031;45.570;14.228;2023-07-28T04:33:27;96835.41;;;9.78;100.00
75815;BME280;70031;45.570;14.228;2023-07-28T04:35:30;96846.34;;;9.87;100.00
75815;BME280;70031;45.570;14.228;2023-07-28T04:37:30;96848.38;;;10.00;100.00
75815;BME280;70031;45.570;14.228;2023-07-28T04:39:30;96848.28;;;10.10;100.00
75815;BME280;70031;45.570;14.228;2023-07-28T04:41:31;96847.72;;;10.13;100.00
75815;BME280;70031;45.570;14.228;2023-07-28T04:43:31;96838.22;;;10.21;100.00
75815;BME280;70031;45.570;14.228;2023-07-28T04:45:31;96844.59;;;10.30;100.00
75815;BME280;70031;45.570;14.228;2023-07-28T04:47:32;96838.09;;;10.36;100.00
75815;BME280;70031;45.570;14.228;2023-07-28T04:49:32;96835.06;;;10.43;100.00
75815;BME280;70031;45.570;14.228;2023-07-28T04:51:32;96839.44;;;10.58;100.00
75815;BME280;70031;45.570;14.228;2023-07-28T04:53:33;96837.44;;;10.68;100.00
75815;BME280;70031;45.570;14.228;2023-07-28T04:55:33;96831.69;;;10.75;100.00
75815;BME280;70031;45.570;14.228;2023-07-28T04:57:33;96835.28;;;10.89;100.00
75815;BME280;70031;45.570;14.228;2023-07-28T04:59:34;96832.53;;;10.94;100.00
75815;BME280;70031;45.570;14.228;2023-07-28T05:01:34;96833.97;;;11.06;100.00
75815;BME280;70031;45.570;14.228;2023-07-28T05:03:34;96831.72;;;11.13;100.00
75815;BME280;70031;45.570;14.228;2023-07-28T05:05:35;96832.72;;;11.17;100.00
75815;BME280;70031;45.570;14.228;2023-07-28T05:07:35;96833.16;;;11.24;100.00
75815;BME280;70031;45.570;14.228;2023-07-28T05:09:36;96835.28;;;11.27;100.00
75815;BME280;70031;45.570;14.228;2023-07-28T05:11:37;96835.19;;;11.32;100.00
75815;BME280;70031;45.570;14.228;2023-07-28T05:13:37;96826.63;;;11.30;100.00
75815;BME280;70031;45.570;14.228;2023-07-28T05:15:37;96834.94;;;11.34;100.00
75815;BME280;70031;45.570;14.228;2023-07-28T05:17:38;96839.50;;;11.33;100.00
75815;BME280;70031;45.570;14.228;2023-07-28T05:19:38;96840.47;;;11.42;100.00
75815;BME280;70031;45.570;14.228;2023-07-28T05:21:39;96854.13;;;11.46;100.00
75815;BME280;70031;45.570;14.228;2023-07-28T05:23:39;96850.03;;;11.48;100.00
75815;BME280;70031;45.570;14.228;2023-07-28T05:25:40;96853.25;;;11.50;100.00
75815;BME280;70031;45.570;14.228;2023-07-28T05:27:40;96850.97;;;11.58;100.00
75815;BME280;70031;45.570;14.228;2023-07-28T05:29:41;96846.53;;;11.67;100.00
75815;BME280;70031;45.570;14.228;2023-07-28T05:31:41;96859.63;;;11.73;100.00
75815;BME280;70031;45.570;14.228;2023-07-28T05:33:42;96853.81;;;11.85;100.00
75815;BME280;70031;45.570;14.228;2023-07-28T05:35:42;96849.53;;;11.98;100.00
75815;BME280;70031;45.570;14.228;2023-07-28T05:37:42;96850.16;;;12.08;100.00
75815;BME280;70031;45.570;14.228;2023-07-28T05:39:43;96850.84;;;12.14;100.00
75815;BME280;70031;45.570;14.228;2023-07-28T05:41:44;96838.88;;;12.20;100.00
75815;BME280;70031;45.570;14.228;2023-07-28T05:43:44;96845.91;;;12.35;100.00
75815;BME280;70031;45.570;14.228;2023-07-28T05:45:47;96833.31;;;12.44;100.00
75815;BME280;70031;45.570;14.228;2023-07-28T05:47:48;96825.63;;;12.51;100.00
75815;BME280;70031;45.570;14.228;2023-07-28T05:49:48;96830.09;;;12.70;100.00
75815;BME280;70031;45.570;14.228;2023-07-28T05:51:48;96824.38;;;12.57;100.00
75815;BME280;70031;45.570;14.228;2023-07-28T05:53:49;96816.81;;;12.46;100.00
75815;BME280;70031;45.570;14.228;2023-07-28T05:55:50;96817.81;;;12.36;100.00
75815;BME280;70031;45.570;14.228;2023-07-28T05:57:50;96824.91;;;12.32;100.00
75815;BME280;70031;45.570;14.228;2023-07-28T05:59:51;96822.41;;;12.49;100.00
75815;BME280;70031;45.570;14.228;2023-07-28T06:01:51;96808.88;;;12.77;100.00
75815;BME280;70031;45.570;14.228;2023-07-28T06:03:53;96825.56;;;12.92;100.00
75815;BME280;70031;45.570;14.228;2023-07-28T06:05:59;96831.84;;;13.02;100.00
75815;BME280;70031;45.570;14.228;2023-07-28T06:07:59;96839.09;;;13.15;100.00
75815;BME280;70031;45.570;14.228;2023-07-28T06:09:59;96833.69;;;13.15;100.00
75815;BME280;70031;45.570;14.228;2023-07-28T06:12:00;96835.00;;;13.31;100.00
75815;BME280;70031;45.570;14.228;2023-07-28T06:14:00;96840.63;;;13.57;100.00
75815;BME280;70031;45.570;14.228;2023-07-28T06:16:00;96847.41;;;14.30;100.00
75815;BME280;70031;45.570;14.228;2023-07-28T06:18:01;96842.94;;;15.57;97.93
75815;BME280;70031;45.570;14.228;2023-07-28T06:20:02;96841.13;;;16.22;91.70
75815;BME280;70031;45.570;14.228;2023-07-28T06:22:03;96846.69;;;17.02;85.58
75815;BME280;70031;45.570;14.228;2023-07-28T06:24:04;96842.47;;;17.55;85.94
75815;BME280;70031;45.570;14.228;2023-07-28T06:26:04;96842.84;;;18.19;82.68
75815;BME280;70031;45.570;14.228;2023-07-28T06:28:04;96846.09;;;18.46;75.16
75815;BME280;70031;45.570;14.228;2023-07-28T06:30:05;96839.84;;;18.58;79.05
75815;BME280;70031;45.570;14.228;2023-07-28T06:32:06;96837.00;;;19.15;71.43
75815;BME280;70031;45.570;14.228;2023-07-28T06:34:06;96842.44;;;19.27;68.82
75815;BME280;70031;45.570;14.228;2023-07-28T06:36:07;96848.38;;;18.11;74.32
75815;BME280;70031;45.570;14.228;2023-07-28T06:38:07;96850.38;;;17.48;77.33
75815;BME280;70031;45.570;14.228;2023-07-28T06:40:08;96848.81;;;17.17;82.01
75815;BME280;70031;45.570;14.228;2023-07-28T06:42:09;96844.50;;;18.00;80.55
75815;BME280;70031;45.570;14.228;2023-07-28T06:44:09;96843.63;;;18.90;77.87
75815;BME280;70031;45.570;14.228;2023-07-28T06:46:10;96844.78;;;18.89;75.21
75815;BME280;70031;45.570;14.228;2023-07-28T06:48:10;96845.91;;;18.75;74.96
75815;BME280;70031;45.570;14.228;2023-07-28T06:50:11;96843.03;;;19.21;77.55
75815;BME280;70031;45.570;14.228;2023-07-28T06:52:11;96837.94;;;19.72;71.76
75815;BME280;70031;45.570;14.228;2023-07-28T06:54:12;96845.91;;;20.36;68.54
75815;BME280;70031;45.570;14.228;2023-07-28T06:56:12;96833.34;;;20.79;70.86
75815;BME280;70031;45.570;14.228;2023-07-28T06:58:13;96837.31;;;21.17;67.84
75815;BME280;70031;45.570;14.228;2023-07-28T07:00:14;96826.31;;;21.68;64.39
75815;BME280;70031;45.570;14.228;2023-07-28T07:02:14;96828.81;;;21.02;70.39
75815;BME280;70031;45.570;14.228;2023-07-28T07:04:15;96830.44;;;21.23;65.63
75815;BME280;70031;45.570;14.228;2023-07-28T07:06:16;96836.03;;;19.88;71.10
75815;BME280;70031;45.570;14.228;2023-07-28T07:08:17;96831.25;;;19.85;74.96
75815;BME280;70031;45.570;14.228;2023-07-28T07:10:17;96833.75;;;19.62;73.05
75815;BME280;70031;45.570;14.228;2023-07-28T07:12:17;96827.41;;;20.02;74.38
75815;BME280;70031;45.570;14.228;2023-07-28T07:14:19;96825.56;;;19.90;74.86
75815;BME280;70031;45.570;14.228;2023-07-28T07:16:19;96824.59;;;20.73;76.34
75815;BME280;70031;45.570;14.228;2023-07-28T07:18:20;96834.28;;;21.02;72.97
75815;BME280;70031;45.570;14.228;2023-07-28T07:20:20;96825.16;;;21.49;69.25
75815;BME280;70031;45.570;14.228;2023-07-28T07:22:20;96826.00;;;20.83;74.29
75815;BME280;70031;45.570;14.228;2023-07-28T07:24:21;96825.28;;;21.02;71.46
75815;BME280;70031;45.570;14.228;2023-07-28T07:26:21;96824.38;;;21.14;72.49
75815;BME280;70031;45.570;14.228;2023-07-28T07:28:22;96816.31;;;20.54;73.38
75815;BME280;70031;45.570;14.228;2023-07-28T07:30:22;96826.78;;;20.68;72.54
75815;BME280;70031;45.570;14.228;2023-07-28T07:32:23;96831.66;;;20.59;78.37
75815;BME280;70031;45.570;14.228;2023-07-28T07:34:23;96836.84;;;21.46;73.07
75815;BME280;70031;45.570;14.228;2023-07-28T07:36:24;96831.72;;;21.64;77.51
75815;BME280;70031;45.570;14.228;2023-07-28T07:38:24;96835.69;;;21.67;71.22
75815;BME280;70031;45.570;14.228;2023-07-28T07:40:24;96833.94;;;21.39;71.86
75815;BME280;70031;45.570;14.228;2023-07-28T07:42:25;96835.09;;;21.38;71.97
75815;BME280;70031;45.570;14.228;2023-07-28T07:44:26;96840.31;;;21.63;74.57
75815;BME280;70031;45.570;14.228;2023-07-28T07:46:27;96847.88;;;22.08;73.91
75815;BME280;70031;45.570;14.228;2023-07-28T07:48:27;96837.34;;;22.52;69.50
75815;BME280;70031;45.570;14.228;2023-07-28T07:50:27;96838.09;;;22.98;66.24
75815;BME280;70031;45.570;14.228;2023-07-28T07:52:28;96844.59;;;22.87;70.13
75815;BME280;70031;45.570;14.228;2023-07-28T07:54:28;96856.13;;;23.22;70.14
75815;BME280;70031;45.570;14.228;2023-07-28T07:56:29;96850.66;;;24.16;73.06
75815;BME280;70031;45.570;14.228;2023-07-28T07:58:29;96843.13;;;24.43;61.98
75815;BME280;70031;45.570;14.228;2023-07-28T08:00:30;96846.38;;;24.19;64.70
75815;BME280;70031;45.570;14.228;2023-07-28T08:02:30;96843.34;;;24.27;66.42
75815;BME280;70031;45.570;14.228;2023-07-28T08:04:31;96846.00;;;23.26;67.64
75815;BME280;70031;45.570;14.228;2023-07-28T08:06:31;96850.78;;;23.07;65.38
75815;BME280;70031;45.570;14.228;2023-07-28T08:08:32;96846.16;;;23.41;71.04
75815;BME280;70031;45.570;14.228;2023-07-28T08:10:33;96844.13;;;23.61;63.73
75815;BME280;70031;45.570;14.228;2023-07-28T08:12:34;96849.28;;;23.39;68.79
75815;BME280;70031;45.570;14.228;2023-07-28T08:14:34;96844.66;;;23.73;63.77
75815;BME280;70031;45.570;14.228;2023-07-28T08:16:35;96849.94;;;22.57;66.47
75815;BME280;70031;45.570;14.228;2023-07-28T08:18:35;96849.56;;;22.81;64.78
75815;BME280;70031;45.570;14.228;2023-07-28T08:20:35;96851.06;;;22.52;62.24
75815;BME280;70031;45.570;14.228;2023-07-28T08:22:36;96844.97;;;22.85;63.13
75815;BME280;70031;45.570;14.228;2023-07-28T08:24:36;96853.97;;;22.40;65.20
75815;BME280;70031;45.570;14.228;2023-07-28T08:26:36;96851.31;;;22.89;63.47
75815;BME280;70031;45.570;14.228;2023-07-28T08:28:37;96844.75;;;22.97;64.76
75815;BME280;70031;45.570;14.228;2023-07-28T08:30:38;96841.81;;;23.10;59.67
75815;BME280;70031;45.570;14.228;2023-07-28T08:32:38;96828.78;;;23.03;65.91
75815;BME280;70031;45.570;14.228;2023-07-28T08:34:39;96833.31;;;22.69;61.23
75815;BME280;70031;45.570;14.228;2023-07-28T08:36:39;96835.09;;;22.35;61.58
75815;BME280;70031;45.570;14.228;2023-07-28T08:38:39;96835.16;;;22.61;63.73
75815;BME280;70031;45.570;14.228;2023-07-28T08:40:40;96833.00;;;22.74;64.97
75815;BME280;70031;45.570;14.228;2023-07-28T08:42:40;96834.22;;;22.77;61.92
75815;BME280;70031;45.570;14.228;2023-07-28T08:44:41;96831.00;;;22.94;60.95
75815;BME280;70031;45.570;14.228;2023-07-28T08:46:41;96840.47;;;23.00;61.92
75815;BME280;70031;45.570;14.228;2023-07-28T08:48:44;96836.22;;;23.29;65.35
75815;BME280;70031;45.570;14.228;2023-07-28T08:50:46;96836.31;;;23.63;65.19
75815;BME280;70031;45.570;14.228;2023-07-28T08:52:46;96834.63;;;23.85;63.87
75815;BME280;70031;45.570;14.228;2023-07-28T08:54:49;96837.09;;;23.63;63.25
75815;BME280;70031;45.570;14.228;2023-07-28T08:56:50;96833.59;;;23.66;65.77
75815;BME280;70031;45.570;14.228;2023-07-28T08:58:57;96847.69;;;23.35;58.84
75815;BME280;70031;45.570;14.228;2023-07-28T09:00:58;96837.94;;;23.41;61.44
75815;BME280;70031;45.570;14.228;2023-07-28T09:03:01;96834.06;;;23.42;61.60
75815;BME280;70031;45.570;14.228;2023-07-28T09:05:02;96843.53;;;23.48;64.39
75815;BME280;70031;45.570;14.228;2023-07-28T09:07:04;96833.81;;;23.54;61.47
75815;BME280;70031;45.570;14.228;2023-07-28T09:09:06;96841.63;;;23.52;60.51
75815;BME280;70031;45.570;14.228;2023-07-28T09:11:07;96849.03;;;23.48;62.51
75815;BME280;70031;45.570;14.228;2023-07-28T09:13:11;96845.13;;;23.75;60.45
75815;BME280;70031;45.570;14.228;2023-07-28T09:15:15;96844.16;;;23.64;59.46
75815;BME280;70031;45.570;14.228;2023-07-28T09:17:16;96841.53;;;23.45;58.48
75815;BME280;70031;45.570;14.228;2023-07-28T09:19:20;96846.19;;;23.67;59.21
75815;BME280;70031;45.570;14.228;2023-07-28T09:21:21;96853.78;;;24.11;62.35
75815;BME280;70031;45.570;14.228;2023-07-28T09:23:30;96850.03;;;24.30;64.89
75815;BME280;70031;45.570;14.228;2023-07-28T09:25:32;96850.66;;;24.16;61.94
75815;BME280;70031;45.570;14.228;2023-07-28T09:27:33;96841.88;;;24.00;60.01
75815;BME280;70031;45.570;14.228;2023-07-28T09:29:34;96852.28;;;24.21;64.17
75815;BME280;70031;45.570;14.228;2023-07-28T09:31:35;96843.47;;;23.71;60.40
75815;BME280;70031;45.570;14.228;2023-07-28T09:33:36;96839.25;;;23.80;61.40
75815;BME280;70031;45.570;14.228;2023-07-28T09:35:49;96846.44;;;23.89;66.20
75815;BME280;70031;45.570;14.228;2023-07-28T09:37:50;96847.22;;;23.89;63.89
75815;BME280;70031;45.570;14.228;2023-07-28T09:39:53;96837.88;;;23.34;63.11
75815;BME280;70031;45.570;14.228;2023-07-28T09:41:54;96836.91;;;22.96;65.19
75815;BME280;70031;45.570;14.228;2023-07-28T09:43:57;96829.09;;;22.75;64.42
75815;BME280;70031;45.570;14.228;2023-07-28T09:45:58;96833.22;;;22.85;65.15
75815;BME280;70031;45.570;14.228;2023-07-28T09:48:01;96836.34;;;22.64;65.23
75815;BME280;70031;45.570;14.228;2023-07-28T09:50:04;96833.06;;;22.78;65.36
75815;BME280;70031;45.570;14.228;2023-07-28T09:52:08;96831.50;;;23.30;65.11
75815;BME280;70031;45.570;14.228;2023-07-28T09:54:13;96828.47;;;23.35;67.29
75815;BME280;70031;45.570;14.228;2023-07-28T09:56:17;96828.63;;;23.19;66.98
75815;BME280;70031;45.570;14.228;2023-07-28T09:58:20;96839.88;;;23.10;66.26
75815;BME280;70031;45.570;14.228;2023-07-28T10:00:23;96836.75;;;23.12;71.29
75815;BME280;70031;45.570;14.228;2023-07-28T10:02:23;96836.94;;;22.99;72.27
75815;BME280;70031;45.570;14.228;2023-07-28T10:04:24;96836.19;;;22.76;75.50
75815;BME280;70031;45.570;14.228;2023-07-28T10:06:25;96839.97;;;22.68;74.16
75815;BME280;70031;45.570;14.228;2023-07-28T10:08:26;96834.47;;;22.68;76.77
75815;BME280;70031;45.570;14.228;2023-07-28T10:10:27;96836.06;;;22.69;76.20
75815;BME280;70031;45.570;14.228;2023-07-28T10:12:28;96835.94;;;22.85;72.15
75815;BME280;70031;45.570;14.228;2023-07-28T10:14:36;96824.06;;;23.30;74.17
75815;BME280;70031;45.570;14.228;2023-07-28T10:16:38;96830.75;;;23.59;70.14
75815;BME280;70031;45.570;14.228;2023-07-28T10:18:39;96826.59;;;24.06;72.77
75815;BME280;70031;45.570;14.228;2023-07-28T10:20:43;96822.88;;;23.88;74.68
75815;BME280;70031;45.570;14.228;2023-07-28T10:22:44;96813.38;;;24.19;79.34
75815;BME280;70031;45.570;14.228;2023-07-28T10:24:55;96812.22;;;24.20;68.81
75815;BME280;70031;45.570;14.228;2023-07-28T10:26:57;96813.28;;;24.49;73.16
75815;BME280;70031;45.570;14.228;2023-07-28T10:29:14;96808.53;;;24.42;70.01
75815;BME280;70031;45.570;14.228;2023-07-28T10:31:29;96813.09;;;24.27;66.15
75815;BME280;70031;45.570;14.228;2023-07-28T10:35:31;96807.81;;;23.48;71.05
75815;BME280;70031;45.570;14.228;2023-07-28T10:37:35;96807.13;;;23.54;73.02
75815;BME280;70031;45.570;14.228;2023-07-28T10:39:36;96806.13;;;24.37;75.05